sensor_id;sensor_type;location;lat;lon;timestamp;P1;durP1;ratioP1;P2;durP2;ratioP2
21458;SDS011;10891;49.350;19.386;2022-12-31T00:00:57;6.38;;;3.95;;
21458;SDS011;10891;49.350;19.386;2022-12-31T00:03:24;6.30;;;3.92;;
21458;SDS011;10891;49.350;19.386;2022-12-31T00:05:51;8.38;;;4.28;;
21458;SDS011;10891;49.350;19.386;2022-12-31T00:08:19;3.83;;;2.25;;
21458;SDS011;10891;49.350;19.386;2022-12-31T00:10:46;7.35;;;4.22;;
21458;SDS011;10891;49.350;19.386;2022-12-31T00:13:13;11.48;;;5.45;;
21458;SDS011;10891;49.350;19.386;2022-12-31T00:15:40;6.15;;;3.60;;
21458;SDS011;10891;49.350;19.386;2022-12-31T00:18:08;9.30;;;5.07;;
21458;SDS011;10891;49.350;19.386;2022-12-31T00:20:37;8.38;;;4.18;;
21458;SDS011;10891;49.350;19.386;2022-12-31T00:23:06;10.65;;;5.50;;
21458;SDS011;10891;49.350;19.386;2022-12-31T00:25:35;7.65;;;4.43;;
21458;SDS011;10891;49.350;19.386;2022-12-31T00:28:02;11.05;;;5.93;;
21458;SDS011;10891;49.350;19.386;2022-12-31T00:30:29;9.43;;;5.68;;
21458;SDS011;10891;49.350;19.386;2022-12-31T00:32:57;9.20;;;4.72;;
21458;SDS011;10891;49.350;19.386;2022-12-31T00:35:24;12.57;;;6.97;;
21458;SDS011;10891;49.350;19.386;2022-12-31T00:37:51;8.93;;;4.95;;
21458;SDS011;10891;49.350;19.386;2022-12-31T00:40:18;10.07;;;6.07;;
21458;SDS011;10891;49.350;19.386;2022-12-31T00:42:47;11.77;;;6.35;;
21458;SDS011;10891;49.350;19.386;2022-12-31T00:45:13;11.10;;;4.32;;
21458;SDS011;10891;49.350;19.386;2022-12-31T00:47:40;12.80;;;5.20;;
21458;SDS011;10891;49.350;19.386;2022-12-31T00:50:08;9.70;;;5.78;;
21458;SDS011;10891;49.350;19.386;2022-12-31T00:52:35;11.25;;;6.03;;
21458;SDS011;10891;49.350;19.386;2022-12-31T00:55:02;5.78;;;2.90;;
21458;SDS011;10891;49.350;19.386;2022-12-31T00:57:29;6.82;;;3.85;;
21458;SDS011;10891;49.350;19.386;2022-12-31T00:59:57;8.85;;;5.13;;
21458;SDS011;10891;49.350;19.386;2022-12-31T01:02:24;6.03;;;3.67;;
21458;SDS011;10891;49.350;19.386;2022-12-31T01:04:51;11.60;;;4.90;;
21458;SDS011;10891;49.350;19.386;2022-12-31T01:07:18;7.63;;;4.90;;
21458;SDS011;10891;49.350;19.386;2022-12-31T01:09:45;15.13;;;6.90;;
21458;SDS011;10891;49.350;19.386;2022-12-31T01:12:12;8.77;;;4.45;;
21458;SDS011;10891;49.350;19.386;2022-12-31T01:14:39;13.13;;;5.35;;
21458;SDS011;10891;49.350;19.386;2022-12-31T01:17:07;9.32;;;5.22;;
21458;SDS011;10891;49.350;19.386;2022-12-31T01:19:34;8.85;;;4.93;;
21458;SDS011;10891;49.350;19.386;2022-12-31T01:22:01;8.57;;;5.22;;
21458;SDS011;10891;49.350;19.386;2022-12-31T01:24:28;7.30;;;3.95;;
21458;SDS011;10891;49.350;19.386;2022-12-31T01:26:55;7.55;;;4.68;;
21458;SDS011;10891;49.350;19.386;2022-12-31T01:29:22;7.07;;;4.50;;
21458;SDS011;10891;49.350;19.386;2022-12-31T01:31:49;5.13;;;3.40;;
21458;SDS011;10891;49.350;19.386;2022-12-31T01:34:18;9.13;;;4.72;;
21458;SDS011;10891;49.350;19.386;2022-12-31T01:36:44;38.78;;;13.30;;
21458;SDS011;10891;49.350;19.386;2022-12-31T01:39:12;11.63;;;5.65;;
21458;SDS011;10891;49.350;19.386;2022-12-31T01:41:40;8.55;;;4.70;;
21458;SDS011;10891;49.350;19.386;2022-12-31T01:47:17;10.15;;;5.45;;
21458;SDS011;10891;49.350;19.386;2022-12-31T01:49:50;9.30;;;5.35;;
21458;SDS011;10891;49.350;19.386;2022-12-31T01:52:23;11.45;;;5.93;;
21458;SDS011;10891;49.350;19.386;2022-12-31T01:54:54;12.27;;;6.68;;
21458;SDS011;10891;49.350;19.386;2022-12-31T01:57:25;12.63;;;5.10;;
21458;SDS011;10891;49.350;19.386;2022-12-31T01:59:53;9.75;;;5.75;;
21458;SDS011;10891;49.350;19.386;2022-12-31T02:02:21;38.35;;;16.98;;
21458;SDS011;10891;49.350;19.386;2022-12-31T02:04:50;11.77;;;5.65;;
21458;SDS011;10891;49.350;19.386;2022-12-31T02:07:19;9.80;;;5.47;;
21458;SDS011;10891;49.350;19.386;2022-12-31T02:09:47;9.07;;;5.57;;
21458;SDS011;10891;49.350;19.386;2022-12-31T02:12:14;14.52;;;7.18;;
21458;SDS011;10891;49.350;19.386;2022-12-31T02:14:42;9.23;;;5.22;;
21458;SDS011;10891;49.350;19.386;2022-12-31T02:17:14;12.93;;;5.88;;
21458;SDS011;10891;49.350;19.386;2022-12-31T02:19:54;9.15;;;5.50;;
21458;SDS011;10891;49.350;19.386;2022-12-31T02:22:44;11.10;;;6.28;;
21458;SDS011;10891;49.350;19.386;2022-12-31T02:25:36;15.10;;;6.88;;
21458;SDS011;10891;49.350;19.386;2022-12-31T02:28:18;16.50;;;8.73;;
21458;SDS011;10891;49.350;19.386;2022-12-31T02:30:59;20.55;;;10.15;;
21458;SDS011;10891;49.350;19.386;2022-12-31T02:33:34;14.20;;;7.53;;
21458;SDS011;10891;49.350;19.386;2022-12-31T02:36:07;10.32;;;6.72;;
21458;SDS011;10891;49.350;19.386;2022-12-31T02:38:39;12.15;;;5.18;;
21458;SDS011;10891;49.350;19.386;2022-12-31T02:41:11;10.32;;;6.18;;
21458;SDS011;10891;49.350;19.386;2022-12-31T02:43:59;12.75;;;7.13;;
21458;SDS011;10891;49.350;19.386;2022-12-31T02:46:29;15.98;;;7.50;;
21458;SDS011;10891;49.350;19.386;2022-12-31T02:49:02;13.55;;;6.22;;
21458;SDS011;10891;49.350;19.386;2022-12-31T02:51:35;11.57;;;6.72;;
21458;SDS011;10891;49.350;19.386;2022-12-31T02:54:21;12.25;;;6.65;;
21458;SDS011;10891;49.350;19.386;2022-12-31T02:56:59;13.57;;;7.72;;
21458;SDS011;10891;49.350;19.386;2022-12-31T02:59:35;18.33;;;8.30;;
21458;SDS011;10891;49.350;19.386;2022-12-31T03:02:23;14.70;;;7.65;;
21458;SDS011;10891;49.350;19.386;2022-12-31T03:04:54;13.68;;;7.25;;
21458;SDS011;10891;49.350;19.386;2022-12-31T03:07:23;14.75;;;7.75;;
21458;SDS011;10891;49.350;19.386;2022-12-31T03:09:51;9.45;;;6.53;;
21458;SDS011;10891;49.350;19.386;2022-12-31T03:12:20;10.45;;;6.53;;
21458;SDS011;10891;49.350;19.386;2022-12-31T03:15:07;12.90;;;6.68;;
21458;SDS011;10891;49.350;19.386;2022-12-31T03:17:46;12.00;;;7.45;;
21458;SDS011;10891;49.350;19.386;2022-12-31T03:20:14;21.20;;;10.48;;
21458;SDS011;10891;49.350;19.386;2022-12-31T03:22:59;13.00;;;6.32;;
21458;SDS011;10891;49.350;19.386;2022-12-31T03:25:28;7.75;;;4.25;;
21458;SDS011;10891;49.350;19.386;2022-12-31T03:28:00;14.40;;;7.13;;
21458;SDS011;10891;49.350;19.386;2022-12-31T03:30:29;12.48;;;7.38;;
21458;SDS011;10891;49.350;19.386;2022-12-31T03:32:59;10.80;;;7.10;;
21458;SDS011;10891;49.350;19.386;2022-12-31T03:35:26;11.10;;;6.57;;
21458;SDS011;10891;49.350;19.386;2022-12-31T03:37:54;6.68;;;3.75;;
21458;SDS011;10891;49.350;19.386;2022-12-31T03:40:22;12.65;;;7.93;;
21458;SDS011;10891;49.350;19.386;2022-12-31T03:42:51;10.40;;;6.57;;
21458;SDS011;10891;49.350;19.386;2022-12-31T03:45:18;11.93;;;6.32;;
21458;SDS011;10891;49.350;19.386;2022-12-31T03:47:46;14.57;;;6.88;;
21458;SDS011;10891;49.350;19.386;2022-12-31T03:50:15;13.50;;;9.38;;
21458;SDS011;10891;49.350;19.386;2022-12-31T03:52:43;12.07;;;7.20;;
21458;SDS011;10891;49.350;19.386;2022-12-31T03:55:10;12.73;;;8.75;;
21458;SDS011;10891;49.350;19.386;2022-12-31T03:57:37;12.77;;;7.32;;
21458;SDS011;10891;49.350;19.386;2022-12-31T04:00:06;9.27;;;5.32;;
21458;SDS011;10891;49.350;19.386;2022-12-31T04:02:35;9.75;;;5.57;;
21458;SDS011;10891;49.350;19.386;2022-12-31T04:05:02;8.95;;;5.88;;
21458;SDS011;10891;49.350;19.386;2022-12-31T04:07:31;8.73;;;5.70;;
21458;SDS011;10891;49.350;19.386;2022-12-31T04:09:58;11.20;;;6.57;;
21458;SDS011;10891;49.350;19.386;2022-12-31T04:12:25;10.20;;;6.63;;
21458;SDS011;10891;49.350;19.386;2022-12-31T04:14:52;9.50;;;5.90;;
21458;SDS011;10891;49.350;19.386;2022-12-31T04:17:19;8.23;;;5.55;;
21458;SDS011;10891;49.350;19.386;2022-12-31T04:19:46;8.93;;;5.50;;
21458;SDS011;10891;49.350;19.386;2022-12-31T04:22:12;15.05;;;9.00;;
21458;SDS011;10891;49.350;19.386;2022-12-31T04:24:41;13.43;;;7.93;;
21458;SDS011;10891;49.350;19.386;2022-12-31T04:27:09;9.68;;;5.32;;
21458;SDS011;10891;49.350;19.386;2022-12-31T04:29:36;8.52;;;4.00;;
21458;SDS011;10891;49.350;19.386;2022-12-31T04:32:03;7.38;;;4.88;;
21458;SDS011;10891;49.350;19.386;2022-12-31T04:34:31;9.32;;;5.75;;
21458;SDS011;10891;49.350;19.386;2022-12-31T04:36:58;7.80;;;5.30;;
21458;SDS011;10891;49.350;19.386;2022-12-31T04:39:25;12.68;;;7.40;;
21458;SDS011;10891;49.350;19.386;2022-12-31T04:41:54;12.85;;;6.95;;
21458;SDS011;10891;49.350;19.386;2022-12-31T04:44:21;16.75;;;8.27;;
21458;SDS011;10891;49.350;19.386;2022-12-31T04:46:47;8.93;;;4.35;;
21458;SDS011;10891;49.350;19.386;2022-12-31T04:49:14;9.80;;;6.75;;
21458;SDS011;10891;49.350;19.386;2022-12-31T04:51:41;11.38;;;8.02;;
21458;SDS011;10891;49.350;19.386;2022-12-31T04:54:08;9.88;;;6.10;;
21458;SDS011;10891;49.350;19.386;2022-12-31T04:56:35;13.85;;;8.88;;
21458;SDS011;10891;49.350;19.386;2022-12-31T04:59:03;16.73;;;10.30;;
21458;SDS011;10891;49.350;19.386;2022-12-31T05:01:31;19.90;;;11.20;;
21458;SDS011;10891;49.350;19.386;2022-12-31T05:03:58;11.18;;;6.90;;
21458;SDS011;10891;49.350;19.386;2022-12-31T05:06:25;14.55;;;8.35;;
21458;SDS011;10891;49.350;19.386;2022-12-31T05:08:52;15.35;;;11.70;;
21458;SDS011;10891;49.350;19.386;2022-12-31T05:11:18;13.82;;;9.25;;
21458;SDS011;10891;49.350;19.386;2022-12-31T05:13:45;12.13;;;6.38;;
21458;SDS011;10891;49.350;19.386;2022-12-31T05:16:13;27.17;;;12.52;;
21458;SDS011;10891;49.350;19.386;2022-12-31T05:18:40;14.48;;;9.55;;
21458;SDS011;10891;49.350;19.386;2022-12-31T05:21:08;23.13;;;12.60;;
21458;SDS011;10891;49.350;19.386;2022-12-31T05:23:38;15.80;;;9.85;;
21458;SDS011;10891;49.350;19.386;2022-12-31T05:26:04;15.35;;;9.70;;
21458;SDS011;10891;49.350;19.386;2022-12-31T05:28:31;15.93;;;9.88;;
21458;SDS011;10891;49.350;19.386;2022-12-31T05:30:58;20.40;;;12.60;;
21458;SDS011;10891;49.350;19.386;2022-12-31T05:33:26;26.38;;;13.95;;
21458;SDS011;10891;49.350;19.386;2022-12-31T05:35:53;13.13;;;8.63;;
21458;SDS011;10891;49.350;19.386;2022-12-31T05:38:22;6.85;;;4.63;;
21458;SDS011;10891;49.350;19.386;2022-12-31T05:40:50;15.18;;;10.65;;
21458;SDS011;10891;49.350;19.386;2022-12-31T05:43:24;13.23;;;8.98;;
21458;SDS011;10891;49.350;19.386;2022-12-31T05:45:51;10.43;;;6.90;;
21458;SDS011;10891;49.350;19.386;2022-12-31T05:48:18;19.27;;;10.85;;
21458;SDS011;10891;49.350;19.386;2022-12-31T05:50:47;10.15;;;5.78;;
21458;SDS011;10891;49.350;19.386;2022-12-31T05:53:14;9.18;;;5.20;;
21458;SDS011;10891;49.350;19.386;2022-12-31T05:55:40;10.80;;;6.53;;
21458;SDS011;10891;49.350;19.386;2022-12-31T05:58:07;9.40;;;6.95;;
21458;SDS011;10891;49.350;19.386;2022-12-31T06:00:34;11.07;;;7.70;;
21458;SDS011;10891;49.350;19.386;2022-12-31T06:03:01;8.82;;;5.03;;
21458;SDS011;10891;49.350;19.386;2022-12-31T06:05:28;9.02;;;6.97;;
21458;SDS011;10891;49.350;19.386;2022-12-31T06:07:57;7.93;;;5.30;;
21458;SDS011;10891;49.350;19.386;2022-12-31T06:10:23;30.13;;;12.25;;
21458;SDS011;10891;49.350;19.386;2022-12-31T06:12:50;5.82;;;4.75;;
21458;SDS011;10891;49.350;19.386;2022-12-31T06:15:17;7.93;;;5.35;;
21458;SDS011;10891;49.350;19.386;2022-12-31T06:17:44;8.82;;;5.03;;
21458;SDS011;10891;49.350;19.386;2022-12-31T06:20:11;9.23;;;5.43;;
21458;SDS011;10891;49.350;19.386;2022-12-31T06:22:38;13.07;;;5.82;;
21458;SDS011;10891;49.350;19.386;2022-12-31T06:25:07;4.60;;;2.78;;
21458;SDS011;10891;49.350;19.386;2022-12-31T06:27:35;11.35;;;5.32;;
21458;SDS011;10891;49.350;19.386;2022-12-31T06:30:02;10.27;;;4.78;;
21458;SDS011;10891;49.350;19.386;2022-12-31T06:32:30;8.30;;;3.90;;
21458;SDS011;10891;49.350;19.386;2022-12-31T06:34:57;10.48;;;5.03;;
21458;SDS011;10891;49.350;19.386;2022-12-31T06:37:24;25.73;;;11.73;;
21458;SDS011;10891;49.350;19.386;2022-12-31T06:39:52;5.75;;;3.53;;
21458;SDS011;10891;49.350;19.386;2022-12-31T06:42:21;21.83;;;10.15;;
21458;SDS011;10891;49.350;19.386;2022-12-31T06:44:49;4.72;;;3.33;;
21458;SDS011;10891;49.350;19.386;2022-12-31T06:47:16;7.88;;;3.65;;
21458;SDS011;10891;49.350;19.386;2022-12-31T06:49:42;7.20;;;5.18;;
21458;SDS011;10891;49.350;19.386;2022-12-31T06:52:09;2.88;;;2.53;;
21458;SDS011;10891;49.350;19.386;2022-12-31T06:54:37;4.00;;;2.90;;
21458;SDS011;10891;49.350;19.386;2022-12-31T06:57:04;6.93;;;2.63;;
21458;SDS011;10891;49.350;19.386;2022-12-31T06:59:34;3.13;;;2.30;;
21458;SDS011;10891;49.350;19.386;2022-12-31T07:02:11;5.30;;;2.30;;
21458;SDS011;10891;49.350;19.386;2022-12-31T07:04:55;14.05;;;6.88;;
21458;SDS011;10891;49.350;19.386;2022-12-31T07:07:41;3.42;;;2.60;;
21458;SDS011;10891;49.350;19.386;2022-12-31T07:10:22;2.78;;;2.28;;
21458;SDS011;10891;49.350;19.386;2022-12-31T07:13:01;3.10;;;2.00;;
21458;SDS011;10891;49.350;19.386;2022-12-31T07:15:58;2.10;;;1.90;;
21458;SDS011;10891;49.350;19.386;2022-12-31T07:18:37;3.65;;;2.72;;
21458;SDS011;10891;49.350;19.386;2022-12-31T07:21:10;5.22;;;2.92;;
21458;SDS011;10891;49.350;19.386;2022-12-31T07:23:40;28.13;;;12.13;;
21458;SDS011;10891;49.350;19.386;2022-12-31T07:26:10;80.82;;;30.05;;
21458;SDS011;10891;49.350;19.386;2022-12-31T07:28:56;54.03;;;24.60;;
21458;SDS011;10891;49.350;19.386;2022-12-31T07:31:32;10.32;;;5.70;;
21458;SDS011;10891;49.350;19.386;2022-12-31T07:34:08;14.15;;;6.70;;
21458;SDS011;10891;49.350;19.386;2022-12-31T07:36:47;10.23;;;5.10;;
21458;SDS011;10891;49.350;19.386;2022-12-31T07:39:25;15.90;;;6.70;;
21458;SDS011;10891;49.350;19.386;2022-12-31T07:41:58;12.85;;;7.10;;
21458;SDS011;10891;49.350;19.386;2022-12-31T07:44:37;9.85;;;5.13;;
21458;SDS011;10891;49.350;19.386;2022-12-31T07:47:19;5.80;;;4.10;;
21458;SDS011;10891;49.350;19.386;2022-12-31T07:49:48;6.00;;;3.75;;
21458;SDS011;10891;49.350;19.386;2022-12-31T07:52:16;7.68;;;4.80;;
21458;SDS011;10891;49.350;19.386;2022-12-31T07:54:44;4.28;;;2.40;;
21458;SDS011;10891;49.350;19.386;2022-12-31T07:57:12;4.93;;;2.45;;
21458;SDS011;10891;49.350;19.386;2022-12-31T07:59:46;13.68;;;6.18;;
21458;SDS011;10891;49.350;19.386;2022-12-31T08:02:29;15.13;;;6.50;;
21458;SDS011;10891;49.350;19.386;2022-12-31T08:05:19;11.82;;;6.15;;
21458;SDS011;10891;49.350;19.386;2022-12-31T08:07:55;19.08;;;8.57;;
21458;SDS011;10891;49.350;19.386;2022-12-31T08:10:35;14.20;;;6.65;;
21458;SDS011;10891;49.350;19.386;2022-12-31T08:13:08;16.27;;;6.95;;
21458;SDS011;10891;49.350;19.386;2022-12-31T08:15:36;7.90;;;3.95;;
21458;SDS011;10891;49.350;19.386;2022-12-31T08:18:06;8.23;;;4.95;;
21458;SDS011;10891;49.350;19.386;2022-12-31T08:20:38;12.98;;;6.13;;
21458;SDS011;10891;49.350;19.386;2022-12-31T08:23:17;11.68;;;5.82;;
21458;SDS011;10891;49.350;19.386;2022-12-31T08:25:56;6.60;;;4.15;;
21458;SDS011;10891;49.350;19.386;2022-12-31T08:28:35;9.73;;;5.70;;
21458;SDS011;10891;49.350;19.386;2022-12-31T08:31:15;8.55;;;4.10;;
21458;SDS011;10891;49.350;19.386;2022-12-31T08:33:47;6.38;;;3.95;;
21458;SDS011;10891;49.350;19.386;2022-12-31T08:36:22;8.25;;;4.20;;
21458;SDS011;10891;49.350;19.386;2022-12-31T08:38:57;9.40;;;5.25;;
21458;SDS011;10891;49.350;19.386;2022-12-31T08:41:28;7.80;;;4.40;;
21458;SDS011;10891;49.350;19.386;2022-12-31T08:44:02;9.05;;;4.82;;
21458;SDS011;10891;49.350;19.386;2022-12-31T08:46:37;12.15;;;6.53;;
21458;SDS011;10891;49.350;19.386;2022-12-31T08:49:13;20.63;;;9.45;;
21458;SDS011;10891;49.350;19.386;2022-12-31T08:51:40;12.07;;;6.20;;
21458;SDS011;10891;49.350;19.386;2022-12-31T08:54:09;69.43;;;24.83;;
21458;SDS011;10891;49.350;19.386;2022-12-31T08:56:39;8.90;;;5.10;;
21458;SDS011;10891;49.350;19.386;2022-12-31T08:59:13;12.43;;;6.30;;
21458;SDS011;10891;49.350;19.386;2022-12-31T09:01:54;6.90;;;3.90;;
21458;SDS011;10891;49.350;19.386;2022-12-31T09:04:44;8.30;;;4.80;;
21458;SDS011;10891;49.350;19.386;2022-12-31T09:07:20;13.80;;;6.30;;
21458;SDS011;10891;49.350;19.386;2022-12-31T09:09:56;12.35;;;6.05;;
21458;SDS011;10891;49.350;19.386;2022-12-31T09:12:31;8.18;;;4.53;;
21458;SDS011;10891;49.350;19.386;2022-12-31T09:15:04;10.60;;;5.68;;
21458;SDS011;10891;49.350;19.386;2022-12-31T09:17:41;10.63;;;5.13;;
21458;SDS011;10891;49.350;19.386;2022-12-31T09:20:15;7.47;;;4.35;;
21458;SDS011;10891;49.350;19.386;2022-12-31T09:22:47;9.50;;;5.30;;
21458;SDS011;10891;49.350;19.386;2022-12-31T09:25:16;5.97;;;4.10;;
21458;SDS011;10891;49.350;19.386;2022-12-31T09:27:49;5.72;;;3.72;;
21458;SDS011;10891;49.350;19.386;2022-12-31T09:30:27;3.75;;;3.05;;
21458;SDS011;10891;49.350;19.386;2022-12-31T09:33:02;4.95;;;3.38;;
21458;SDS011;10891;49.350;19.386;2022-12-31T09:35:40;3.95;;;2.70;;
21458;SDS011;10891;49.350;19.386;2022-12-31T09:38:12;6.30;;;2.60;;
21458;SDS011;10891;49.350;19.386;2022-12-31T09:40:54;3.75;;;2.60;;
21458;SDS011;10891;49.350;19.386;2022-12-31T09:44:01;5.47;;;3.70;;
21458;SDS011;10891;49.350;19.386;2022-12-31T09:47:10;11.30;;;5.40;;
21458;SDS011;10891;49.350;19.386;2022-12-31T09:56:16;18.10;;;8.75;;
21458;SDS011;10891;49.350;19.386;2022-12-31T09:58:55;4.95;;;3.03;;
21458;SDS011;10891;49.350;19.386;2022-12-31T10:01:41;23.65;;;11.50;;
21458;SDS011;10891;49.350;19.386;2022-12-31T10:07:15;13.32;;;7.55;;
21458;SDS011;10891;49.350;19.386;2022-12-31T10:10:01;30.38;;;10.57;;
21458;SDS011;10891;49.350;19.386;2022-12-31T10:12:38;14.75;;;5.35;;
21458;SDS011;10891;49.350;19.386;2022-12-31T10:15:31;21.38;;;7.28;;
21458;SDS011;10891;49.350;19.386;2022-12-31T10:18:16;34.97;;;10.95;;
21458;SDS011;10891;49.350;19.386;2022-12-31T10:20:59;19.95;;;7.25;;
21458;SDS011;10891;49.350;19.386;2022-12-31T10:23:42;20.52;;;9.50;;
21458;SDS011;10891;49.350;19.386;2022-12-31T10:26:21;19.45;;;9.65;;
21458;SDS011;10891;49.350;19.386;2022-12-31T10:29:05;35.85;;;14.27;;
21458;SDS011;10891;49.350;19.386;2022-12-31T10:31:42;26.65;;;11.75;;
21458;SDS011;10891;49.350;19.386;2022-12-31T10:34:21;20.70;;;11.30;;
21458;SDS011;10891;49.350;19.386;2022-12-31T10:36:57;29.58;;;11.35;;
21458;SDS011;10891;49.350;19.386;2022-12-31T10:39:40;36.20;;;11.57;;
21458;SDS011;10891;49.350;19.386;2022-12-31T10:45:24;10.70;;;6.40;;
21458;SDS011;10891;49.350;19.386;2022-12-31T10:48:28;13.13;;;7.15;;
21458;SDS011;10891;49.350;19.386;2022-12-31T10:51:21;6.50;;;4.30;;
21458;SDS011;10891;49.350;19.386;2022-12-31T10:57:31;13.63;;;6.78;;
21458;SDS011;10891;49.350;19.386;2022-12-31T11:00:18;12.52;;;9.50;;
21458;SDS011;10891;49.350;19.386;2022-12-31T11:09:21;9.48;;;5.68;;
21458;SDS011;10891;49.350;19.386;2022-12-31T11:12:11;19.48;;;9.30;;
21458;SDS011;10891;49.350;19.386;2022-12-31T11:14:57;12.85;;;6.95;;
21458;SDS011;10891;49.350;19.386;2022-12-31T11:17:40;21.40;;;10.60;;
21458;SDS011;10891;49.350;19.386;2022-12-31T11:23:17;73.35;;;32.90;;
21458;SDS011;10891;49.350;19.386;2022-12-31T11:25:57;82.30;;;35.42;;
21458;SDS011;10891;49.350;19.386;2022-12-31T11:28:39;73.25;;;34.50;;
21458;SDS011;10891;49.350;19.386;2022-12-31T11:31:39;169.65;;;49.78;;
21458;SDS011;10891;49.350;19.386;2022-12-31T11:34:23;86.70;;;32.95;;
21458;SDS011;10891;49.350;19.386;2022-12-31T11:37:17;26.30;;;13.40;;
21458;SDS011;10891;49.350;19.386;2022-12-31T11:39:56;20.02;;;10.40;;
21458;SDS011;10891;49.350;19.386;2022-12-31T11:42:39;20.73;;;10.18;;
21458;SDS011;10891;49.350;19.386;2022-12-31T11:45:13;10.45;;;5.90;;
21458;SDS011;10891;49.350;19.386;2022-12-31T11:47:50;8.25;;;4.60;;
21458;SDS011;10891;49.350;19.386;2022-12-31T11:50:27;11.43;;;6.80;;
21458;SDS011;10891;49.350;19.386;2022-12-31T11:53:03;10.07;;;4.82;;
21458;SDS011;10891;49.350;19.386;2022-12-31T11:55:42;15.95;;;8.32;;
21458;SDS011;10891;49.350;19.386;2022-12-31T11:58:19;13.63;;;6.05;;
21458;SDS011;10891;49.350;19.386;2022-12-31T12:00:53;22.38;;;8.90;;
21458;SDS011;10891;49.350;19.386;2022-12-31T12:03:23;24.42;;;15.38;;
21458;SDS011;10891;49.350;19.386;2022-12-31T12:05:51;30.05;;;18.23;;
21458;SDS011;10891;49.350;19.386;2022-12-31T12:08:18;24.50;;;12.10;;
21458;SDS011;10891;49.350;19.386;2022-12-31T12:10:46;37.47;;;17.15;;
21458;SDS011;10891;49.350;19.386;2022-12-31T12:13:19;12.23;;;7.22;;
21458;SDS011;10891;49.350;19.386;2022-12-31T12:15:49;12.65;;;7.60;;
21458;SDS011;10891;49.350;19.386;2022-12-31T12:18:27;14.40;;;8.65;;
21458;SDS011;10891;49.350;19.386;2022-12-31T12:21:00;18.40;;;11.93;;
21458;SDS011;10891;49.350;19.386;2022-12-31T12:23:31;63.47;;;31.23;;
21458;SDS011;10891;49.350;19.386;2022-12-31T12:25:58;24.25;;;13.98;;
21458;SDS011;10891;49.350;19.386;2022-12-31T12:28:27;28.45;;;14.60;;
21458;SDS011;10891;49.350;19.386;2022-12-31T12:30:56;39.88;;;19.88;;
21458;SDS011;10891;49.350;19.386;2022-12-31T12:33:27;12.75;;;7.28;;
21458;SDS011;10891;49.350;19.386;2022-12-31T12:36:06;22.48;;;11.60;;
21458;SDS011;10891;49.350;19.386;2022-12-31T12:38:34;35.30;;;16.05;;
21458;SDS011;10891;49.350;19.386;2022-12-31T12:41:02;35.20;;;17.25;;
21458;SDS011;10891;49.350;19.386;2022-12-31T12:43:31;26.05;;;14.98;;
21458;SDS011;10891;49.350;19.386;2022-12-31T12:45:59;31.05;;;17.40;;
21458;SDS011;10891;49.350;19.386;2022-12-31T12:48:31;19.50;;;10.55;;
21458;SDS011;10891;49.350;19.386;2022-12-31T12:51:06;26.85;;;14.00;;
21458;SDS011;10891;49.350;19.386;2022-12-31T12:53:44;23.25;;;15.52;;
21458;SDS011;10891;49.350;19.386;2022-12-31T12:56:24;27.63;;;15.52;;
21458;SDS011;10891;49.350;19.386;2022-12-31T12:59:06;24.05;;;13.85;;
21458;SDS011;10891;49.350;19.386;2022-12-31T13:01:54;26.42;;;13.40;;
21458;SDS011;10891;49.350;19.386;2022-12-31T13:04:37;33.35;;;17.55;;
21458;SDS011;10891;49.350;19.386;2022-12-31T13:07:17;22.50;;;10.88;;
21458;SDS011;10891;49.350;19.386;2022-12-31T13:10:02;31.67;;;15.02;;
21458;SDS011;10891;49.350;19.386;2022-12-31T13:12:50;31.60;;;13.45;;
21458;SDS011;10891;49.350;19.386;2022-12-31T13:15:23;20.92;;;11.60;;
21458;SDS011;10891;49.350;19.386;2022-12-31T13:18:00;22.92;;;13.02;;
21458;SDS011;10891;49.350;19.386;2022-12-31T13:20:39;25.80;;;12.52;;
21458;SDS011;10891;49.350;19.386;2022-12-31T13:23:13;45.55;;;25.75;;
21458;SDS011;10891;49.350;19.386;2022-12-31T13:25:53;21.27;;;13.50;;
21458;SDS011;10891;49.350;19.386;2022-12-31T13:28:28;16.95;;;11.45;;
21458;SDS011;10891;49.350;19.386;2022-12-31T13:30:57;11.15;;;7.78;;
21458;SDS011;10891;49.350;19.386;2022-12-31T13:33:27;11.20;;;7.15;;
21458;SDS011;10891;49.350;19.386;2022-12-31T13:35:59;22.30;;;14.05;;
21458;SDS011;10891;49.350;19.386;2022-12-31T13:38:30;25.60;;;17.90;;
21458;SDS011;10891;49.350;19.386;2022-12-31T13:41:03;14.77;;;10.18;;
21458;SDS011;10891;49.350;19.386;2022-12-31T13:43:36;23.92;;;15.63;;
21458;SDS011;10891;49.350;19.386;2022-12-31T13:46:10;13.10;;;8.43;;
21458;SDS011;10891;49.350;19.386;2022-12-31T13:48:45;15.25;;;7.57;;
21458;SDS011;10891;49.350;19.386;2022-12-31T13:51:21;34.38;;;14.07;;
21458;SDS011;10891;49.350;19.386;2022-12-31T13:53:55;35.83;;;14.20;;
21458;SDS011;10891;49.350;19.386;2022-12-31T13:56:28;44.63;;;21.90;;
21458;SDS011;10891;49.350;19.386;2022-12-31T13:59:02;42.80;;;19.65;;
21458;SDS011;10891;49.350;19.386;2022-12-31T14:01:33;32.63;;;16.73;;
21458;SDS011;10891;49.350;19.386;2022-12-31T14:04:07;48.45;;;21.98;;
21458;SDS011;10891;49.350;19.386;2022-12-31T14:06:42;30.02;;;16.98;;
21458;SDS011;10891;49.350;19.386;2022-12-31T14:09:16;24.83;;;13.25;;
21458;SDS011;10891;49.350;19.386;2022-12-31T14:14:59;27.63;;;12.88;;
21458;SDS011;10891;49.350;19.386;2022-12-31T14:17:34;25.75;;;12.60;;
21458;SDS011;10891;49.350;19.386;2022-12-31T14:20:10;17.92;;;12.57;;
21458;SDS011;10891;49.350;19.386;2022-12-31T14:22:46;17.40;;;10.63;;
21458;SDS011;10891;49.350;19.386;2022-12-31T14:25:22;38.70;;;16.85;;
21458;SDS011;10891;49.350;19.386;2022-12-31T14:27:55;53.38;;;17.30;;
21458;SDS011;10891;49.350;19.386;2022-12-31T14:30:26;52.00;;;18.27;;
21458;SDS011;10891;49.350;19.386;2022-12-31T14:33:00;89.80;;;24.90;;
21458;SDS011;10891;49.350;19.386;2022-12-31T14:35:48;47.42;;;21.80;;
21458;SDS011;10891;49.350;19.386;2022-12-31T14:38:29;19.25;;;9.57;;
21458;SDS011;10891;49.350;19.386;2022-12-31T14:41:10;47.08;;;22.50;;
21458;SDS011;10891;49.350;19.386;2022-12-31T14:43:50;46.33;;;18.30;;
21458;SDS011;10891;49.350;19.386;2022-12-31T14:46:27;46.53;;;21.25;;
21458;SDS011;10891;49.350;19.386;2022-12-31T14:49:05;20.60;;;9.32;;
21458;SDS011;10891;49.350;19.386;2022-12-31T14:51:45;42.95;;;19.95;;
21458;SDS011;10891;49.350;19.386;2022-12-31T14:54:26;78.30;;;31.85;;
21458;SDS011;10891;49.350;19.386;2022-12-31T14:56:54;37.50;;;17.38;;
21458;SDS011;10891;49.350;19.386;2022-12-31T14:59:23;59.85;;;29.30;;
21458;SDS011;10891;49.350;19.386;2022-12-31T15:01:52;60.72;;;21.60;;
21458;SDS011;10891;49.350;19.386;2022-12-31T15:04:29;25.23;;;11.10;;
21458;SDS011;10891;49.350;19.386;2022-12-31T15:07:01;42.08;;;16.40;;
21458;SDS011;10891;49.350;19.386;2022-12-31T15:12:41;25.77;;;13.38;;
21458;SDS011;10891;49.350;19.386;2022-12-31T15:21:13;63.10;;;20.33;;
21458;SDS011;10891;49.350;19.386;2022-12-31T15:23:55;28.48;;;13.57;;
21458;SDS011;10891;49.350;19.386;2022-12-31T15:26:26;21.50;;;12.43;;
21458;SDS011;10891;49.350;19.386;2022-12-31T15:28:56;22.85;;;13.40;;
21458;SDS011;10891;49.350;19.386;2022-12-31T15:31:26;18.88;;;11.68;;
21458;SDS011;10891;49.350;19.386;2022-12-31T15:33:58;27.65;;;11.75;;
21458;SDS011;10891;49.350;19.386;2022-12-31T15:36:26;35.03;;;19.20;;